Dallas Love Field
KDAL : now visible

Airfield :











YOU CAN JOIN US ON...

 
LOGIN :

Register | Disclaimer

   EN    FR    IT 

 









Legend :    VFR   Marginal VFR   IFR   Intensive IFR   Very Intensive IFR
Visi :
Ceiling :
>= 8 km
>= 3000ft
5 to 8 km
1000 to 3000 ft
1500m to 5 km
500 to 1000 ft
800 to 1500m
200 to 500 ft
< 800m
< 200 ft
Symbols :   Thunderstorms  Fog  Heavy snow  Heavy precipitations  Wind > 20 kt







- Airport Elevation : 487 ft
- IATA code : DAL


KDAL - Dallas Love Field

CURRENT METAR :
  • 201253Z 31008KT 10SM OVC011 04/01 A2997 RMK AO2 SLP148 T00390011 $

EXPIRED METARs :
  • 201153Z 30011KT 10SM OVC010 03/01 A2995 RMK AO2 SLP142 70041 T00330011 10044 20033 53002 $
  • 201053Z 29012KT 10SM OVC009 04/02 A2994 RMK AO2 SLP139 T00390017 $
  • 201017Z 30011KT 10SM OVC009 04/02 A2994 RMK AO2 T00390022 $

TAF KDAL
Valid from the 20 at 12:00 until the 21 at 12:00 UTC


201130Z 2012/2112 29012KT P6SM OVC012
TEMPO 2012/2013 OVC008
FM201600 26010KT P6SM SCT020 BKN200
FM210000 14005KT P6SM BKN200
KZFW FIR / North America



MET'MAP, your aeronautical weather chart ! - Copyright ORBIFLY December 2007 - Disclaimer

ORBIFLY MET'MAP TEAM :

Programming & Development : Alexandra Zaïnal
Concept & Development : Baudouin d'Aumeries
Co-Development & Prog : Marc-Olivier Méhu
Technical & hardware support : Manuel Goepfert

Contact : metmap@orbifly.com




SOURCES & CREDITS :

   NOAA       Earth
Advisory